Time;durP1;ratioP1;P1;durP2;ratioP2;P2;SDS_P1;SDS_P2;PMS_P1;PMS_P2;Temp;Humidity;BMP_temperature;BMP_pressure;BME280_temperature;BME280_humidity;BME280_pressure;Samples;Min_cycle;Max_cycle;Signal;HPM_P1;HPM_P2
2021/10/14 00:00:22;;;;;;;9.07;6.03;;;;;;;8.68;98.60;102470.72;2107970;28;20028;-65
2021/10/14 00:01:22;;;;;;;13.70;7.33;;;;;;;8.67;98.72;102469.00;2106683;28;20017;-65
2021/10/14 00:02:22;;;;;;;22.30;8.20;;;;;;;8.67;99.24;102474.19;2107298;28;20366;-65
2021/10/14 00:03:23;;;;;;;17.30;6.70;;;;;;;8.66;99.09;102477.69;2107682;28;20051;-64
2021/10/14 00:04:23;;;;;;;16.65;6.90;;;;;;;8.65;98.94;102478.53;2107838;28;20024;-65
2021/10/14 00:05:24;;;;;;;16.83;8.63;;;;;;;8.64;99.24;102474.22;2107740;28;20420;-66
2021/10/14 00:06:24;;;;;;;18.90;8.27;;;;;;;8.65;99.37;102470.75;2108056;28;20027;-65
2021/10/14 00:07:24;;;;;;;15.67;8.10;;;;;;;8.65;99.21;102468.13;2107992;28;20024;-64
2021/10/14 00:08:24;;;;;;;17.57;8.43;;;;;;;8.66;99.57;102469.88;2107871;28;20031;-64
2021/10/14 00:09:25;;;;;;;16.50;7.20;;;;;;;8.64;99.62;102466.41;2107841;28;20020;-64
2021/10/14 00:10:26;;;;;;;15.67;8.40;;;;;;;8.64;99.51;102469.00;2107918;28;20489;-64
2021/10/14 00:11:27;;;;;;;16.70;8.73;;;;;;;8.64;99.70;102471.63;2107964;28;20023;-66
2021/10/14 00:12:28;;;;;;;15.55;8.40;;;;;;;8.64;100.00;102466.41;2107872;28;20073;-65
2021/10/14 00:13:28;;;;;;;18.87;7.77;;;;;;;8.65;99.98;102470.75;2107702;28;20070;-64
2021/10/14 00:14:28;;;;;;;11.23;7.20;;;;;;;8.63;100.00;102472.50;2107851;28;20020;-63
2021/10/14 00:15:29;;;;;;;20.70;9.07;;;;;;;8.65;100.00;102470.75;2107582;28;20024;-65
2021/10/14 00:16:29;;;;;;;15.20;8.80;;;;;;;8.62;100.00;102469.03;2107565;28;20016;-64
2021/10/14 00:17:30;;;;;;;15.23;7.40;;;;;;;8.63;100.00;102469.91;2107213;28;20047;-64
2021/10/14 00:18:30;;;;;;;19.27;9.03;;;;;;;8.64;100.00;102469.00;2098934;28;20047;-64
2021/10/14 00:19:31;;;;;;;17.33;8.20;;;;;;;8.63;100.00;102469.91;2107354;28;20020;-64
2021/10/14 00:20:31;;;;;;;16.83;9.38;;;;;;;8.64;100.00;102469.00;2107673;28;20471;-65
2021/10/14 00:21:32;;;;;;;15.33;8.93;;;;;;;8.66;100.00;102467.28;2107857;28;20039;-64
2021/10/14 00:22:32;;;;;;;11.83;8.77;;;;;;;8.63;100.00;102468.13;2106416;28;20028;-64
2021/10/14 00:23:32;;;;;;;18.90;8.77;;;;;;;8.63;100.00;102462.09;2107855;28;20035;-64
2021/10/14 00:24:33;;;;;;;17.87;11.77;;;;;;;8.62;100.00;102465.53;2107956;28;20504;-64
2021/10/14 00:25:33;;;;;;;18.80;10.27;;;;;;;8.62;100.00;102461.22;2107787;28;20057;-64
2021/10/14 00:26:33;;;;;;;20.80;9.93;;;;;;;8.64;100.00;102461.22;2107908;28;20469;-64
2021/10/14 00:27:33;;;;;;;16.10;8.73;;;;;;;8.65;100.00;102462.09;2107785;28;20024;-64
2021/10/14 00:28:34;;;;;;;22.90;11.40;;;;;;;8.66;100.00;102462.06;2107728;28;20039;-68
2021/10/14 00:29:34;;;;;;;16.67;9.30;;;;;;;8.67;100.00;102457.72;2107836;28;20024;-64
2021/10/14 00:30:34;;;;;;;18.90;9.33;;;;;;;8.67;100.00;102457.72;2107933;28;20024;-65
2021/10/14 00:31:35;;;;;;;25.93;9.60;;;;;;;8.66;100.00;102454.28;2107234;28;20024;-65
2021/10/14 00:32:35;;;;;;;20.73;10.10;;;;;;;8.66;100.00;102456.88;2107244;28;20487;-66
2021/10/14 00:33:35;;;;;;;18.10;10.30;;;;;;;8.66;100.00;102456.88;2107788;28;20046;-65
2021/10/14 00:34:35;;;;;;;21.93;10.17;;;;;;;8.67;100.00;102452.50;2107667;28;20428;-64
2021/10/14 00:35:36;;;;;;;20.00;10.97;;;;;;;8.67;100.00;102453.38;2107801;28;20068;-64
2021/10/14 00:36:37;;;;;;;23.55;11.15;;;;;;;8.67;100.00;102449.91;2107230;28;20024;-65
2021/10/14 00:37:37;;;;;;;21.30;11.37;;;;;;;8.67;100.00;102442.97;2107080;28;20074;-65
2021/10/14 00:38:37;;;;;;;21.33;12.30;;;;;;;8.67;100.00;102442.97;2107189;28;20093;-65
2021/10/14 00:39:38;;;;;;;18.37;10.87;;;;;;;8.67;100.00;102442.97;2107765;28;20477;-64
2021/10/14 00:40:39;;;;;;;22.13;11.50;;;;;;;8.67;100.00;102440.38;2107517;28;20112;-65
2021/10/14 00:41:39;;;;;;;24.92;12.60;;;;;;;8.68;100.00;102443.81;2107671;28;20290;-65
2021/10/14 00:42:44;;;;;;;23.67;13.07;;;;;;;8.69;100.00;102441.19;2107772;28;20019;-65
2021/10/14 00:43:44;;;;;;;25.55;12.57;;;;;;;8.68;100.00;102444.69;2107702;28;20035;-65
2021/10/14 00:44:46;;;;;;;21.63;11.97;;;;;;;8.70;100.00;102442.94;2107766;28;20047;-64
2021/10/14 00:45:47;;;;;;;16.55;10.75;;;;;;;8.69;100.00;102443.81;2107552;28;20465;-65
2021/10/14 00:46:55;;;;;;;19.47;10.57;;;;;;;8.69;100.00;102441.19;2107548;28;20020;-64
2021/10/14 00:47:56;;;;;;;22.75;11.88;;;;;;;8.70;100.00;102437.75;2107526;28;20366;-65
2021/10/14 00:48:56;;;;;;;22.00;11.30;;;;;;;8.71;100.00;102441.19;2107502;28;20077;-67
2021/10/14 00:49:58;;;;;;;27.67;13.93;;;;;;;8.70;100.00;102437.75;2106956;28;20031;-64
2021/10/14 00:50:58;;;;;;;24.80;12.90;;;;;;;8.71;100.00;102439.47;2106940;28;20078;-62
2021/10/14 00:51:58;;;;;;;20.03;11.33;;;;;;;8.72;100.00;102429.91;2107679;28;20036;-64
2021/10/14 00:52:59;;;;;;;23.47;11.80;;;;;;;8.73;100.00;102431.66;2107544;28;20031;-64
2021/10/14 00:53:59;;;;;;;17.70;11.77;;;;;;;8.73;100.00;102432.47;2107661;28;20278;-64
2021/10/14 00:54:59;;;;;;;25.20;12.70;;;;;;;8.75;100.00;102433.34;2107468;28;20553;-65
2021/10/14 00:56:00;;;;;;;24.60;11.63;;;;;;;8.72;100.00;102435.97;2107612;28;20023;-64
2021/10/14 00:57:00;;;;;;;25.87;12.63;;;;;;;8.72;100.00;102428.16;2107624;28;20027;-64
2021/10/14 00:58:01;;;;;;;22.60;13.40;;;;;;;8.73;100.00;102424.69;2107517;28;20028;-62
2021/10/14 00:59:02;;;;;;;21.60;11.70;;;;;;;8.72;100.00;102422.97;2107628;28;20053;-63
2021/10/14 01:00:04;;;;;;;22.17;11.68;;;;;;;8.73;100.00;102416.88;2106739;28;20058;-64
2021/10/14 01:01:05;;;;;;;22.98;12.32;;;;;;;8.73;100.00;102421.22;2106958;28;20024;-64
2021/10/14 01:02:06;;;;;;;24.73;12.13;;;;;;;8.74;100.00;102413.41;2107600;28;20439;-64
2021/10/14 01:03:07;;;;;;;20.10;10.85;;;;;;;8.75;100.00;102409.03;2107581;28;20035;-64
2021/10/14 01:04:07;;;;;;;24.77;12.50;;;;;;;8.75;100.00;102415.13;2107096;28;20102;-65
2021/10/14 01:05:08;;;;;;;22.70;12.67;;;;;;;8.73;100.00;102414.25;2107418;28;20032;-64
2021/10/14 01:06:08;;;;;;;24.20;12.15;;;;;;;8.74;100.00;102410.81;2107549;28;20023;-64
2021/10/14 01:07:09;;;;;;;24.13;12.03;;;;;;;8.75;100.00;102416.84;2107576;28;20481;-64
2021/10/14 01:08:09;;;;;;;24.95;12.10;;;;;;;8.75;100.00;102412.53;2106910;28;20047;-64
2021/10/14 01:09:10;;;;;;;19.67;11.90;;;;;;;8.76;100.00;102413.41;2106890;28;20028;-65
2021/10/14 01:10:11;;;;;;;22.73;11.88;;;;;;;8.77;100.00;102404.72;2107331;28;20492;-66
2021/10/14 01:11:11;;;;;;;22.58;14.18;;;;;;;8.78;100.00;102414.22;2107426;28;20110;-65
2021/10/14 01:12:13;;;;;;;22.23;11.17;;;;;;;8.80;100.00;102409.88;2106818;28;20028;-65
2021/10/14 01:13:13;;;;;;;26.33;13.90;;;;;;;8.81;100.00;102402.91;2106540;28;20020;-65
2021/10/14 01:14:13;;;;;;;27.53;13.20;;;;;;;8.82;100.00;102404.63;2107323;28;20480;-64
2021/10/14 01:15:24;;;;;;;22.53;13.17;;;;;;;8.81;100.00;102397.72;2107514;28;20108;-64
2021/10/14 01:16:24;;;;;;;25.35;13.73;;;;;;;8.83;100.00;102401.19;2107073;28;20016;-64
2021/10/14 01:17:25;;;;;;;28.60;14.18;;;;;;;8.84;100.00;102397.69;2107248;28;20465;-65
2021/10/14 01:18:25;;;;;;;25.87;14.13;;;;;;;8.83;100.00;102390.78;2107174;28;20065;-66
2021/10/14 01:19:26;;;;;;;26.90;13.90;;;;;;;8.81;100.00;102390.78;2106621;28;20062;-64
2021/10/14 01:20:27;;;;;;;25.30;15.07;;;;;;;8.83;100.00;102385.56;2106427;28;20028;-64
2021/10/14 01:21:27;;;;;;;24.03;12.80;;;;;;;8.81;100.00;102388.19;2106395;28;20070;-64
2021/10/14 01:22:27;;;;;;;29.30;15.02;;;;;;;8.83;100.00;102390.78;2106969;28;20019;-64
2021/10/14 01:23:28;;;;;;;23.50;14.00;;;;;;;8.83;100.00;102395.97;2107111;28;20043;-66
2021/10/14 01:24:28;;;;;;;27.60;14.40;;;;;;;8.84;100.00;102395.09;2107118;28;20392;-64
2021/10/14 01:25:29;;;;;;;30.43;15.03;;;;;;;8.84;100.00;102397.69;2106766;28;20024;-64
2021/10/14 01:26:30;;;;;;;35.30;16.20;;;;;;;8.85;100.00;102395.06;2106745;28;20028;-64
2021/10/14 01:27:30;;;;;;;27.30;12.90;;;;;;;8.86;100.00;102395.94;2107362;28;20576;-64
2021/10/14 01:28:30;;;;;;;25.40;13.30;;;;;;;8.86;100.00;102398.56;2107274;28;20488;-64
2021/10/14 01:29:31;;;;;;;27.87;14.30;;;;;;;8.86;100.00;102395.94;2106577;28;20023;-64
2021/10/14 01:30:32;;;;;;;27.20;14.52;;;;;;;8.86;100.00;102390.75;2106726;28;20110;-65
2021/10/14 01:31:32;;;;;;;23.63;14.10;;;;;;;8.87;100.00;102395.06;2098329;28;20123;-65
2021/10/14 01:32:33;;;;;;;27.40;13.48;;;;;;;8.87;100.00;102389.84;2106550;28;20027;-65
2021/10/14 01:33:33;;;;;;;27.75;15.57;;;;;;;8.87;100.00;102393.31;2106877;28;20473;-65
2021/10/14 01:34:34;;;;;;;30.33;15.07;;;;;;;8.87;100.00;102392.47;2107231;28;20051;-64
2021/10/14 01:35:34;;;;;;;31.23;16.07;;;;;;;8.85;100.00;102391.59;2107199;28;20050;-64
2021/10/14 01:36:34;;;;;;;25.87;15.67;;;;;;;8.86;100.00;102390.75;2107333;28;20307;-66
2021/10/14 01:37:35;;;;;;;25.83;12.83;;;;;;;8.87;100.00;102392.47;2107276;28;20024;-65
2021/10/14 01:38:36;;;;;;;29.63;15.82;;;;;;;8.87;100.00;102388.09;2106701;28;20032;-64
2021/10/14 01:39:36;;;;;;;26.27;14.63;;;;;;;8.87;100.00;102384.66;2106570;28;20032;-65
2021/10/14 01:40:36;;;;;;;25.73;14.70;;;;;;;8.88;100.00;102388.97;2106616;28;20032;-64
2021/10/14 01:41:36;;;;;;;27.93;16.30;;;;;;;8.88;100.00;102388.97;2106893;28;20055;-64
2021/10/14 01:42:37;;;;;;;28.90;16.97;;;;;;;8.91;100.00;102388.06;2107119;28;20167;-64
2021/10/14 01:43:37;;;;;;;35.00;16.42;;;;;;;8.90;100.00;102382.03;2106375;28;20476;-65
2021/10/14 01:44:38;;;;;;;32.13;17.17;;;;;;;8.89;100.00;102380.28;2106651;28;20027;-65
2021/10/14 01:45:38;;;;;;;30.13;17.10;;;;;;;8.89;100.00;102380.28;2106750;28;20100;-64
2021/10/14 01:46:39;;;;;;;33.10;17.60;;;;;;;8.91;100.00;102378.53;2106141;28;20119;-65
2021/10/14 01:47:39;;;;;;;32.60;17.10;;;;;;;8.91;100.00;102378.53;2106566;28;20024;-65
2021/10/14 01:48:39;;;;;;;30.00;16.77;;;;;;;8.91;100.00;102372.44;2106151;28;20305;-65
2021/10/14 01:49:39;;;;;;;34.17;19.80;;;;;;;8.93;100.00;102381.97;2106044;28;20134;-64
2021/10/14 01:50:40;;;;;;;27.70;16.57;;;;;;;8.93;100.00;102381.97;2106946;28;20016;-64
2021/10/14 01:51:41;;;;;;;31.38;16.58;;;;;;;8.92;100.00;102375.03;2107011;28;20017;-66
2021/10/14 01:52:41;;;;;;;28.87;17.80;;;;;;;8.93;100.00;102381.13;2107049;28;20016;-65
2021/10/14 01:53:41;;;;;;;24.97;13.93;;;;;;;8.94;100.00;102383.72;2107017;28;20392;-65
2021/10/14 01:54:42;;;;;;;29.23;16.63;;;;;;;8.95;100.00;102381.94;2106362;28;20035;-65
2021/10/14 01:55:42;;;;;;;29.73;17.10;;;;;;;8.94;100.00;102378.50;2106405;28;20099;-65
2021/10/14 01:56:42;;;;;;;27.67;17.00;;;;;;;8.94;100.00;102378.50;2106939;28;20030;-64
2021/10/14 01:57:43;;;;;;;30.40;17.57;;;;;;;8.94;100.00;102377.63;2107026;28;20032;-65
2021/10/14 01:58:43;;;;;;;25.50;15.87;;;;;;;8.95;100.00;102380.22;2106786;28;20722;-64
2021/10/14 01:59:43;;;;;;;29.85;16.10;;;;;;;8.94;100.00;102378.50;2106478;28;20020;-66
2021/10/14 02:00:45;;;;;;;31.33;19.20;;;;;;;8.95;100.00;102375.00;2106838;28;20384;-65
2021/10/14 02:01:45;;;;;;;29.35;17.27;;;;;;;8.96;100.00;102376.72;2106213;28;20028;-66
2021/10/14 02:02:46;;;;;;;37.10;18.37;;;;;;;8.95;100.00;102377.63;2106814;28;20053;-65
2021/10/14 02:03:46;;;;;;;27.03;17.07;;;;;;;8.94;100.00;102375.03;2106791;28;20019;-65
2021/10/14 02:04:46;;;;;;;28.77;14.90;;;;;;;8.95;100.00;102384.56;2107051;28;20077;-66
2021/10/14 02:05:46;;;;;;;31.00;19.63;;;;;;;8.94;100.00;102375.03;2106687;28;20384;-64
2021/10/14 02:06:47;;;;;;;28.13;16.00;;;;;;;8.93;100.00;102379.34;2106920;28;20046;-65
2021/10/14 02:07:47;;;;;;;25.50;18.00;;;;;;;8.94;100.00;102373.28;2106696;28;20051;-65
2021/10/14 02:08:47;;;;;;;28.40;16.53;;;;;;;8.93;100.00;102376.75;2106930;28;20024;-66
2021/10/14 02:09:47;;;;;;;26.00;15.60;;;;;;;8.93;100.00;102379.34;2106957;28;20020;-66
2021/10/14 02:10:48;;;;;;;27.87;18.90;;;;;;;8.95;100.00;102372.41;2106676;28;20024;-65
2021/10/14 02:11:48;;;;;;;27.70;17.07;;;;;;;8.95;100.00;102368.94;2105880;28;20511;-65
2021/10/14 02:12:48;;;;;;;26.50;16.90;;;;;;;8.95;100.00;102369.81;2105640;28;20032;-66
2021/10/14 02:13:48;;;;;;;26.50;16.17;;;;;;;8.95;100.00;102375.00;2105863;28;20031;-65
2021/10/14 02:14:49;;;;;;;27.73;17.60;;;;;;;8.97;100.00;102378.44;2106590;28;20020;-65
2021/10/14 02:15:49;;;;;;;30.87;17.00;;;;;;;8.95;100.00;102369.81;2106665;28;20031;-69
2021/10/14 02:16:49;;;;;;;29.60;16.53;;;;;;;8.95;100.00;102368.94;2105963;28;20039;-65
2021/10/14 02:17:49;;;;;;;27.70;15.03;;;;;;;8.96;100.00;102374.13;2106194;28;20024;-64
2021/10/14 02:18:50;;;;;;;27.00;15.80;;;;;;;8.96;100.00;102368.91;2106275;28;20024;-65
2021/10/14 02:19:50;;;;;;;29.03;14.40;;;;;;;8.98;100.00;102371.50;2097925;28;20060;-66
2021/10/14 02:20:50;;;;;;;31.20;14.17;;;;;;;8.98;100.00;102376.72;2106379;28;20045;-66
2021/10/14 02:21:51;;;;;;;26.63;15.10;;;;;;;8.99;100.00;102373.22;2106731;28;20021;-66
2021/10/14 02:22:51;;;;;;;28.90;14.93;;;;;;;9.00;100.00;102369.75;2106593;28;20035;-65
2021/10/14 02:23:51;;;;;;;31.45;16.55;;;;;;;9.00;100.00;102361.94;2106328;28;20034;-65
2021/10/14 02:24:52;;;;;;;27.83;15.40;;;;;;;9.02;100.00;102376.66;2106293;28;20476;-66
2021/10/14 02:25:52;;;;;;;30.77;17.27;;;;;;;9.00;100.00;102369.75;2106501;28;20039;-65
2021/10/14 02:26:52;;;;;;;29.23;16.10;;;;;;;9.00;100.00;102372.38;2106793;28;20029;-65
2021/10/14 02:27:52;;;;;;;31.17;15.00;;;;;;;8.99;100.00;102371.50;2106570;28;20078;-64
2021/10/14 02:28:53;;;;;;;27.97;16.20;;;;;;;8.99;100.00;102366.28;2106776;28;20030;-66
2021/10/14 02:29:53;;;;;;;27.60;14.95;;;;;;;8.99;100.00;102368.00;2106223;28;20028;-64
2021/10/14 02:30:53;;;;;;;25.20;14.93;;;;;;;8.98;100.00;102364.56;2105937;28;20028;-65
2021/10/14 02:31:54;;;;;;;23.73;13.80;;;;;;;8.96;100.00;102361.09;2106030;28;20024;-65
2021/10/14 02:32:54;;;;;;;24.23;15.05;;;;;;;8.97;100.00;102362.81;2106321;28;20023;-67
2021/10/14 02:33:55;;;;;;;25.63;15.77;;;;;;;8.98;100.00;102361.97;2106665;28;20469;-65
2021/10/14 02:34:57;;;;;;;30.40;16.00;;;;;;;8.98;100.00;102353.28;2106041;28;20044;-65
2021/10/14 02:35:57;;;;;;;28.27;17.73;;;;;;;8.98;100.00;102356.75;2106286;28;20416;-66
2021/10/14 02:36:57;;;;;;;27.47;15.80;;;;;;;8.98;100.00;102354.16;2106246;28;20038;-65
2021/10/14 02:37:58;;;;;;;25.57;15.27;;;;;;;9.01;100.00;102359.28;2106222;28;20221;-66
2021/10/14 02:38:58;;;;;;;29.77;16.20;;;;;;;8.99;100.00;102358.47;2106244;28;20028;-66
2021/10/14 02:39:58;;;;;;;26.93;16.17;;;;;;;9.00;100.00;102362.78;2106191;28;20477;-64
2021/10/14 02:40:59;;;;;;;22.90;13.60;;;;;;;9.01;100.00;102364.50;2106243;28;20039;-65
2021/10/14 02:41:59;;;;;;;26.10;16.33;;;;;;;9.03;100.00;102361.88;2106225;28;20055;-66
2021/10/14 02:43:00;;;;;;;28.07;15.03;;;;;;;9.06;100.00;102358.41;2106341;28;20038;-66
2021/10/14 02:44:00;;;;;;;24.35;14.40;;;;;;;9.04;100.00;102353.22;2106347;28;20473;-65
2021/10/14 02:45:00;;;;;;;22.20;13.10;;;;;;;9.05;100.00;102356.66;2105334;28;20019;-66
2021/10/14 02:46:01;;;;;;;23.67;11.83;;;;;;;9.06;100.00;102355.81;2105713;28;20059;-66
2021/10/14 02:47:01;;;;;;;23.97;13.47;;;;;;;9.06;100.00;102355.81;2106255;28;20039;-66
2021/10/14 02:48:01;;;;;;;28.43;16.23;;;;;;;9.07;100.00;102354.91;2106123;28;20028;-66
2021/10/14 02:49:02;;;;;;;25.70;14.73;;;;;;;9.07;100.00;102354.91;2106330;28;20024;-66
2021/10/14 02:50:03;;;;;;;30.90;16.10;;;;;;;9.07;100.00;102353.16;2106119;28;20119;-66
2021/10/14 02:51:03;;;;;;;30.88;16.67;;;;;;;9.08;100.00;102356.63;2106155;28;20473;-66
2021/10/14 02:52:04;;;;;;;28.37;15.30;;;;;;;9.08;100.00;102356.63;2106297;28;20527;-65
2021/10/14 02:53:04;;;;;;;25.17;15.82;;;;;;;9.10;100.00;102362.72;2106155;28;20020;-66
2021/10/14 02:54:05;;;;;;;27.57;15.70;;;;;;;9.08;100.00;102349.69;2106131;28;20024;-66
2021/10/14 02:55:06;;;;;;;24.77;14.87;;;;;;;9.10;100.00;102358.34;2106188;28;20042;-66
2021/10/14 02:56:06;;;;;;;26.08;14.45;;;;;;;9.09;100.00;102346.19;2106215;28;20028;-66
2021/10/14 02:57:06;;;;;;;23.63;15.33;;;;;;;9.11;100.00;102354.00;2105496;28;20557;-66
2021/10/14 02:58:06;;;;;;;27.17;14.50;;;;;;;9.09;100.00;102350.53;2105552;28;20496;-68
2021/10/14 02:59:07;;;;;;;22.67;12.63;;;;;;;9.11;100.00;102348.78;2105726;28;20028;-65
2021/10/14 03:00:08;;;;;;;24.30;14.47;;;;;;;9.09;100.00;102350.53;2105599;28;20070;-66
2021/10/14 03:01:08;;;;;;;27.83;14.95;;;;;;;9.10;100.00;102347.91;2106171;28;20530;-66
2021/10/14 03:02:08;;;;;;;29.43;15.47;;;;;;;9.11;100.00;102354.00;2106419;28;20081;-66
2021/10/14 03:03:08;;;;;;;25.50;13.93;;;;;;;9.11;100.00;102347.03;2106629;28;20081;-65
2021/10/14 03:04:09;;;;;;;26.00;12.97;;;;;;;9.13;100.00;102352.22;2106447;28;20036;-65
2021/10/14 03:05:09;;;;;;;25.50;13.97;;;;;;;9.11;100.00;102349.63;2106505;28;20024;-65
2021/10/14 03:06:09;;;;;;;24.20;12.90;;;;;;;9.12;100.00;102356.59;2106519;28;20024;-66
2021/10/14 03:07:09;;;;;;;27.20;15.17;;;;;;;9.14;100.00;102360.03;2106156;28;20067;-65
2021/10/14 03:08:10;;;;;;;26.90;16.43;;;;;;;9.14;100.00;102357.41;2105352;28;20031;-65
2021/10/14 03:09:10;;;;;;;29.30;14.37;;;;;;;9.13;100.00;102353.09;2106028;28;20020;-65
2021/10/14 03:10:11;;;;;;;25.80;15.00;;;;;;;9.16;100.00;102357.41;2106225;28;20056;-66
2021/10/14 03:11:11;;;;;;;28.85;13.35;;;;;;;9.16;99.62;102352.19;2106363;28;20051;-67
2021/10/14 03:12:11;;;;;;;26.70;14.93;;;;;;;9.16;99.79;102362.63;2105359;28;20024;-65
2021/10/14 03:13:11;;;;;;;33.20;13.83;;;;;;;9.18;100.00;102357.38;2105713;28;20024;-67
2021/10/14 03:14:12;;;;;;;32.65;14.60;;;;;;;9.17;99.93;102359.13;2106271;28;20024;-65
2021/10/14 03:15:12;;;;;;;22.37;12.93;;;;;;;9.18;99.98;102358.25;2105699;28;20252;-65
2021/10/14 03:16:13;;;;;;;25.33;13.83;;;;;;;9.19;99.81;102353.91;2106072;28;20031;-65
2021/10/14 03:17:13;;;;;;;28.02;15.98;;;;;;;9.18;99.83;102360.00;2106038;28;20108;-65
2021/10/14 03:18:13;;;;;;;30.27;15.43;;;;;;;9.19;99.74;102361.72;2106198;28;20016;-66
2021/10/14 03:19:13;;;;;;;25.37;15.47;;;;;;;9.19;99.82;102362.59;2106094;28;20099;-65
2021/10/14 03:20:14;;;;;;;24.60;13.90;;;;;;;9.18;99.76;102357.38;2106330;28;20023;-66
2021/10/14 03:21:15;;;;;;;34.20;16.03;;;;;;;9.19;100.00;102359.97;2105952;28;20438;-66
2021/10/14 03:22:15;;;;;;;;;;;;;;;9.20;99.81;102356.47;2107158;28;20027;-65
2021/10/14 03:23:15;;;;;;;27.40;14.13;;;;;;;9.19;99.68;102354.75;2106398;28;20276;-67
2021/10/14 03:24:16;;;;;;;33.13;14.43;;;;;;;9.22;99.80;102357.34;2106441;28;20045;-65
2021/10/14 03:25:16;;;;;;;28.80;13.93;;;;;;;9.23;99.57;102355.56;2106479;28;20055;-67
2021/10/14 03:26:17;;;;;;;28.93;15.03;;;;;;;9.22;99.73;102352.13;2106531;28;20044;-67
2021/10/14 03:27:17;;;;;;;23.25;14.95;;;;;;;9.22;99.34;102357.34;2106158;28;20099;-66
2021/10/14 03:28:17;;;;;;;36.97;16.00;;;;;;;9.24;99.66;102354.72;2106406;28;20016;-67
2021/10/14 03:29:18;;;;;;;30.43;14.43;;;;;;;9.24;99.26;102349.50;2106507;28;20471;-66
2021/10/14 03:30:18;;;;;;;22.47;13.20;;;;;;;9.24;99.36;102349.50;2106127;28;20085;-66
2021/10/14 03:31:18;;;;;;;29.90;14.77;;;;;;;9.25;99.59;102349.50;2106099;28;20028;-66
2021/10/14 03:32:19;;;;;;;32.27;18.00;;;;;;;9.23;99.19;102348.63;2106116;28;20030;-66
2021/10/14 03:33:19;;;;;;;25.87;15.17;;;;;;;9.26;99.74;102356.41;2106064;28;20024;-65
2021/10/14 03:34:19;;;;;;;29.13;15.97;;;;;;;9.25;99.27;102344.28;2105373;28;20012;-66
2021/10/14 03:35:20;;;;;;;30.03;17.87;;;;;;;9.26;99.54;102345.13;2105728;28;20431;-65
2021/10/14 03:36:20;;;;;;;26.70;15.60;;;;;;;9.25;99.35;102346.88;2106037;28;20028;-66
2021/10/14 03:37:20;;;;;;;26.90;15.57;;;;;;;9.26;99.27;102345.13;2105941;28;20032;-65
2021/10/14 03:38:20;;;;;;;26.03;15.27;;;;;;;9.25;99.34;102346.88;2106344;28;20084;-66
2021/10/14 03:39:21;;;;;;;20.77;13.40;;;;;;;9.25;99.72;102348.63;2106410;28;20544;-65
2021/10/14 03:40:21;;;;;;;26.17;13.60;;;;;;;9.26;99.51;102352.94;2106311;28;20362;-66
2021/10/14 03:41:21;;;;;;;33.07;16.37;;;;;;;9.26;99.32;102353.81;2106198;28;20024;-64
2021/10/14 03:42:21;;;;;;;30.73;14.80;;;;;;;9.28;99.38;102345.97;2106460;28;20485;-66
2021/10/14 03:43:22;;;;;;;30.47;16.60;;;;;;;9.27;99.21;102350.31;2105925;28;20036;-67
2021/10/14 03:44:22;;;;;;;29.42;15.20;;;;;;;9.31;98.88;102355.50;2106148;28;20054;-66
2021/10/14 03:45:23;;;;;;;25.57;15.30;;;;;;;9.31;98.61;102347.69;2106219;28;20496;-65
2021/10/14 03:46:23;;;;;;;30.03;16.40;;;;;;;9.31;99.24;102345.06;2106295;28;20031;-65
2021/10/14 03:47:24;;;;;;;21.90;13.17;;;;;;;9.34;99.11;102352.84;2106227;28;20166;-65
2021/10/14 03:48:24;;;;;;;24.77;13.38;;;;;;;9.35;98.75;102347.63;2106320;28;20426;-67
2021/10/14 03:49:24;;;;;;;33.27;15.27;;;;;;;9.32;98.76;102352.00;2106145;28;20020;-67
2021/10/14 03:50:25;;;;;;;26.50;14.30;;;;;;;9.33;98.64;102354.59;2106477;28;20041;-67
2021/10/14 03:51:26;;;;;;;31.42;14.30;;;;;;;9.34;98.68;102353.69;2105863;28;20016;-67
2021/10/14 03:52:27;;;;;;;26.48;15.70;;;;;;;9.35;98.59;102350.25;2105702;28;20097;-65
2021/10/14 03:53:27;;;;;;;30.03;14.53;;;;;;;9.37;98.31;102347.59;2106405;28;20514;-66
2021/10/14 03:54:27;;;;;;;29.30;14.10;;;;;;;9.37;98.40;102342.38;2105784;28;20045;-66
2021/10/14 03:55:28;;;;;;;30.40;16.17;;;;;;;9.37;98.11;102350.19;2105709;28;20254;-66
2021/10/14 03:56:28;;;;;;;27.30;16.53;;;;;;;9.36;98.51;102348.47;2106482;28;20476;-66
2021/10/14 03:57:28;;;;;;;26.80;15.70;;;;;;;9.34;98.31;102355.47;2107943;28;20036;-67
2021/10/14 03:58:28;;;;;;;25.40;15.27;;;;;;;9.33;98.35;102349.38;2107429;28;20059;-66
2021/10/14 03:59:29;;;;;;;26.17;14.30;;;;;;;9.33;97.92;102349.38;2107714;28;20012;-67
2021/10/14 04:00:29;;;;;;;28.63;12.50;;;;;;;9.32;97.95;102346.78;2108027;28;20422;-66
2021/10/14 04:01:29;;;;;;;27.87;16.13;;;;;;;9.33;98.65;102345.91;2107698;28;20100;-66
2021/10/14 04:02:29;;;;;;;26.37;15.97;;;;;;;9.31;98.56;102351.13;2107660;28;20012;-66
2021/10/14 04:03:30;;;;;;;25.67;14.30;;;;;;;9.32;98.34;102346.78;2107465;28;20027;-66
2021/10/14 04:04:30;;;;;;;35.00;15.70;;;;;;;9.31;98.32;102350.28;2107848;28;20028;-66
2021/10/14 04:05:30;;;;;;;25.57;15.70;;;;;;;9.29;98.02;102352.91;2107706;28;20134;-66
2021/10/14 04:06:30;;;;;;;29.63;15.07;;;;;;;9.28;98.64;102356.41;2107669;28;20093;-67
2021/10/14 04:07:31;;;;;;;42.50;15.43;;;;;;;9.28;98.52;102352.03;2107480;28;20099;-67
2021/10/14 04:08:31;;;;;;;25.37;13.03;;;;;;;9.30;98.82;102348.56;2107743;28;20047;-65
2021/10/14 04:09:31;;;;;;;30.60;15.77;;;;;;;9.31;98.02;102352.91;2107680;28;20027;-67
2021/10/14 04:10:32;;;;;;;34.77;16.03;;;;;;;9.32;98.56;102354.59;2107374;28;20088;-66
2021/10/14 04:11:32;;;;;;;27.77;17.70;;;;;;;9.31;98.59;102350.28;2106689;28;20044;-66
2021/10/14 04:12:33;;;;;;;35.33;18.87;;;;;;;9.30;98.48;102353.78;2107170;28;20504;-67
2021/10/14 04:13:33;;;;;;;27.88;17.02;;;;;;;9.28;98.26;102345.97;2107344;28;20031;-66
2021/10/14 04:14:33;;;;;;;31.23;18.83;;;;;;;9.28;98.37;102346.81;2107334;28;20490;-66
2021/10/14 04:15:33;;;;;;;29.23;16.07;;;;;;;9.28;98.08;102340.78;2107522;28;20048;-66
2021/10/14 04:16:34;;;;;;;31.50;14.53;;;;;;;9.27;98.18;102345.13;2107401;28;20107;-66
2021/10/14 04:17:34;;;;;;;27.10;16.93;;;;;;;9.27;98.61;102347.72;2106565;28;20020;-66
2021/10/14 04:18:36;;;;;;;30.17;15.97;;;;;;;9.27;98.68;102347.72;2106737;28;20016;-65
2021/10/14 04:19:36;;;;;;;23.80;13.82;;;;;;;9.26;98.57;102347.72;2107647;28;20499;-66
2021/10/14 04:20:36;;;;;;;26.83;12.47;;;;;;;9.25;98.98;102341.69;2107926;28;20035;-68
2021/10/14 04:21:38;;;;;;;23.63;13.47;;;;;;;9.25;98.60;102352.09;2107674;28;20028;-66
2021/10/14 04:22:38;;;;;;;27.13;13.93;;;;;;;9.24;98.39;102342.53;2107794;28;20499;-66
2021/10/14 04:23:43;;;;;;;22.08;13.13;;;;;;;9.25;98.75;102346.88;2107632;28;20024;-66
2021/10/14 04:24:45;;;;;;;23.70;14.63;;;;;;;9.25;98.55;102346.00;2107514;28;20020;-66
2021/10/14 04:25:46;;;;;;;26.55;15.63;;;;;;;9.25;98.75;102341.69;2107568;28;20024;-68
2021/10/14 04:26:46;;;;;;;23.27;14.00;;;;;;;9.25;98.86;102351.22;2107607;28;20046;-66
2021/10/14 04:27:46;;;;;;;30.80;14.87;;;;;;;9.25;98.93;102344.28;2107629;28;20032;-67
2021/10/14 04:28:46;;;;;;;28.43;16.30;;;;;;;9.25;98.64;102341.69;2107756;28;20026;-67
2021/10/14 04:29:47;;;;;;;22.47;12.73;;;;;;;9.24;98.90;102345.16;2107889;28;20035;-67
2021/10/14 04:30:48;;;;;;;24.73;13.70;;;;;;;9.24;98.60;102345.16;2107817;28;20099;-68
2021/10/14 04:31:48;;;;;;;25.05;13.60;;;;;;;9.26;98.12;102347.72;2106950;28;20024;-67
2021/10/14 04:32:49;;;;;;;23.73;12.63;;;;;;;9.25;98.47;102346.00;2106936;28;20517;-66
2021/10/14 04:33:49;;;;;;;28.20;15.27;;;;;;;9.26;98.09;102343.41;2107682;28;20016;-65
2021/10/14 04:34:51;;;;;;;27.77;14.60;;;;;;;9.24;98.54;102339.94;2107641;28;20064;-67
2021/10/14 04:35:51;;;;;;;;;;;;;;;9.26;98.24;102337.31;2108180;28;20058;-66
2021/10/14 04:36:51;;;;;;;25.40;12.57;;;;;;;9.25;98.20;102333.00;2106890;28;19912;-67